Time;durP1;ratioP1;P1;durP2;ratioP2;P2;SDS_P1;SDS_P2;PMS_P1;PMS_P2;Temp;Humidity;BMP_temperature;BMP_pressure;BME280_temperature;BME280_humidity;BME280_pressure;Samples;Min_cycle;Max_cycle;Signal;HPM_P1;HPM_P2
2022/03/08 00:01:20;;;;;;;16.02;12.75;;;;;;;;;;5058758;28;20036;-77
2022/03/08 00:03:48;;;;;;;18.48;14.02;;;;;;;;;;5059857;28;20420;-77
2022/03/08 00:06:16;;;;;;;14.25;11.95;;;;;;;;;;5068805;28;20051;-77
2022/03/08 00:08:43;;;;;;;15.00;11.98;;;;;;;;;;5069171;28;20053;-77
2022/03/08 00:11:11;;;;;;;17.42;14.40;;;;;;;;;;5069232;28;20044;-77
2022/03/08 00:13:39;;;;;;;20.35;14.10;;;;;;;;;;5069561;28;20082;-77
2022/03/08 00:16:06;;;;;;;16.33;12.00;;;;;;;;;;5068646;28;20044;-77
2022/03/08 00:18:35;;;;;;;16.65;12.13;;;;;;;;;;5069503;28;20150;-77
2022/03/08 00:21:02;;;;;;;16.55;13.80;;;;;;;;;;5069366;28;20041;-76
2022/03/08 00:23:30;;;;;;;16.92;12.85;;;;;;;;;;5069428;28;20071;-77
2022/03/08 00:25:59;;;;;;;17.38;12.35;;;;;;;;;;5068860;28;20052;-76
2022/03/08 00:28:28;;;;;;;15.15;12.52;;;;;;;;;;5069466;28;20055;-76
2022/03/08 00:30:56;;;;;;;16.90;12.43;;;;;;;;;;5069635;28;20036;-76
2022/03/08 00:33:24;;;;;;;16.67;12.20;;;;;;;;;;5051157;28;20071;-77
2022/03/08 00:35:52;;;;;;;17.35;13.38;;;;;;;;;;5069036;28;20033;-77
2022/03/08 00:38:20;;;;;;;17.15;13.65;;;;;;;;;;5049268;28;20037;-77
2022/03/08 00:40:47;;;;;;;19.10;13.75;;;;;;;;;;5068860;28;20044;-77
2022/03/08 00:43:15;;;;;;;18.23;12.57;;;;;;;;;;5054471;28;20124;-77
2022/03/08 00:45:43;;;;;;;17.05;13.05;;;;;;;;;;5036568;28;20053;-75
2022/03/08 00:48:11;;;;;;;22.50;16.33;;;;;;;;;;5070197;28;20098;-76
2022/03/08 00:50:39;;;;;;;17.83;12.85;;;;;;;;;;5071594;28;20048;-77
2022/03/08 00:53:06;;;;;;;19.30;14.13;;;;;;;;;;5073248;28;20040;-76
2022/03/08 00:55:34;;;;;;;16.63;12.75;;;;;;;;;;5069201;28;20063;-78
2022/03/08 00:58:03;;;;;;;18.92;13.82;;;;;;;;;;5046816;28;20029;-76
2022/03/08 01:00:31;;;;;;;18.35;14.63;;;;;;;;;;5074604;28;20891;-77
2022/03/08 01:03:00;;;;;;;18.60;13.88;;;;;;;;;;5054434;28;20092;-77
2022/03/08 01:05:30;;;;;;;19.00;15.68;;;;;;;;;;5075742;28;20033;-77
2022/03/08 01:07:58;;;;;;;17.00;12.95;;;;;;;;;;5072638;28;20052;-76
2022/03/08 01:10:26;;;;;;;18.23;14.85;;;;;;;;;;5057188;28;20041;-77
2022/03/08 01:12:54;;;;;;;19.67;12.88;;;;;;;;;;5088611;28;20028;-77
2022/03/08 01:15:23;;;;;;;21.45;14.27;;;;;;;;;;5097654;28;20042;-76
2022/03/08 01:17:51;;;;;;;18.58;14.23;;;;;;;;;;5098003;28;20041;-76
2022/03/08 01:20:18;;;;;;;19.40;14.85;;;;;;;;;;5098002;28;20032;-75
2022/03/08 01:22:46;;;;;;;18.35;14.27;;;;;;;;;;5096296;28;20131;-76
2022/03/08 01:25:18;;;;;;;19.88;14.65;;;;;;;;;;5072962;28;20044;-76
2022/03/08 01:27:45;;;;;;;19.85;15.30;;;;;;;;;;5069307;28;20044;-76
2022/03/08 01:30:14;;;;;;;24.75;16.60;;;;;;;;;;5096816;28;20055;-76
2022/03/08 01:32:42;;;;;;;19.23;14.80;;;;;;;;;;5098074;28;20044;-77
2022/03/08 01:35:09;;;;;;;19.85;14.80;;;;;;;;;;5054929;28;20060;-76
2022/03/08 01:37:37;;;;;;;20.60;16.30;;;;;;;;;;5097275;28;20028;-76
2022/03/08 01:40:07;;;;;;;22.65;16.55;;;;;;;;;;5090896;28;20140;-75
2022/03/08 01:42:35;;;;;;;22.08;17.13;;;;;;;;;;5073491;28;20025;-75
2022/03/08 01:45:02;;;;;;;21.80;17.08;;;;;;;;;;5097930;28;20024;-75
2022/03/08 01:47:30;;;;;;;20.52;16.25;;;;;;;;;;5079285;28;20040;-76
2022/03/08 01:49:57;;;;;;;20.20;16.42;;;;;;;;;;5081013;28;20028;-76
2022/03/08 01:52:25;;;;;;;17.70;15.00;;;;;;;;;;5079610;28;20040;-75
2022/03/08 01:54:53;;;;;;;20.05;15.23;;;;;;;;;;5062266;28;20074;-76
2022/03/08 01:57:23;;;;;;;17.25;13.25;;;;;;;;;;5073960;28;20041;-76
2022/03/08 01:59:52;;;;;;;20.70;16.48;;;;;;;;;;5073171;28;20059;-76
2022/03/08 02:02:19;;;;;;;18.38;14.07;;;;;;;;;;5062539;23;20055;-71
2022/03/08 02:04:47;;;;;;;17.50;13.38;;;;;;;;;;5041047;28;20045;-71
2022/03/08 02:07:15;;;;;;;19.90;15.85;;;;;;;;;;5011339;28;20107;-71
2022/03/08 02:09:42;;;;;;;20.02;13.98;;;;;;;;;;5007538;28;20514;-71
2022/03/08 02:12:10;;;;;;;21.70;14.82;;;;;;;;;;5032463;28;20043;-71
2022/03/08 02:14:38;;;;;;;21.98;16.40;;;;;;;;;;5043116;28;20043;-71
2022/03/08 02:17:06;;;;;;;18.58;14.35;;;;;;;;;;5040249;28;20044;-71
2022/03/08 02:19:34;;;;;;;19.67;15.27;;;;;;;;;;5044246;28;20041;-71
2022/03/08 02:22:01;;;;;;;17.45;13.77;;;;;;;;;;5029826;28;20076;-71
2022/03/08 02:24:28;;;;;;;20.45;15.52;;;;;;;;;;5036062;28;20068;-71
2022/03/08 02:26:56;;;;;;;23.08;16.23;;;;;;;;;;5051518;28;20154;-71
2022/03/08 02:29:23;;;;;;;17.33;13.43;;;;;;;;;;5029311;28;20036;-71
2022/03/08 02:31:51;;;;;;;15.85;12.77;;;;;;;;;;5015001;28;20040;-72
2022/03/08 02:34:18;;;;;;;18.38;13.25;;;;;;;;;;5043547;28;20098;-71
2022/03/08 02:37:04;;;;;;;19.05;15.82;;;;;;;;;;5055105;28;20078;-71
2022/03/08 02:39:32;;;;;;;19.50;14.98;;;;;;;;;;5028146;28;20041;-71
2022/03/08 02:42:00;;;;;;;17.17;14.20;;;;;;;;;;5029314;28;20041;-71
2022/03/08 02:44:27;;;;;;;18.98;14.20;;;;;;;;;;5028370;28;20053;-71
2022/03/08 02:46:55;;;;;;;19.17;14.63;;;;;;;;;;5029006;28;20041;-72
2022/03/08 02:49:22;;;;;;;20.25;15.00;;;;;;;;;;5028759;28;20049;-72
2022/03/08 02:51:50;;;;;;;19.42;15.00;;;;;;;;;;5016550;28;20067;-71
2022/03/08 02:54:17;;;;;;;18.05;14.30;;;;;;;;;;5048116;28;20035;-71
2022/03/08 02:56:45;;;;;;;18.95;15.68;;;;;;;;;;5048527;28;20044;-71
2022/03/08 02:59:18;;;;;;;21.00;16.48;;;;;;;;;;5037308;28;20041;-72
2022/03/08 03:01:45;;;;;;;20.73;15.18;;;;;;;;;;5032380;28;20052;-72
2022/03/08 03:04:13;;;;;;;20.13;15.50;;;;;;;;;;5059007;28;20052;-72
2022/03/08 03:06:41;;;;;;;16.65;12.68;;;;;;;;;;5069424;28;20041;-71
2022/03/08 03:09:08;;;;;;;19.05;14.80;;;;;;;;;;5068622;28;20048;-71
2022/03/08 03:11:37;;;;;;;16.65;12.63;;;;;;;;;;5068719;28;20068;-72
2022/03/08 03:14:04;;;;;;;19.13;15.73;;;;;;;;;;5067772;28;20127;-72
2022/03/08 03:16:32;;;;;;;21.15;15.65;;;;;;;;;;5050231;28;20044;-72
2022/03/08 03:18:59;;;;;;;17.23;14.07;;;;;;;;;;5056790;28;20040;-72
2022/03/08 03:21:26;;;;;;;20.00;14.40;;;;;;;;;;5047545;28;20045;-72
2022/03/08 03:23:54;;;;;;;19.88;16.13;;;;;;;;;;5048109;28;20094;-70
2022/03/08 03:26:21;;;;;;;19.42;15.23;;;;;;;;;;5047825;28;20256;-70
2022/03/08 03:28:48;;;;;;;19.67;14.90;;;;;;;;;;5047540;28;20450;-70
2022/03/08 03:31:16;;;;;;;18.00;13.90;;;;;;;;;;5084855;23;20036;-69
2022/03/08 03:33:44;;;;;;;16.83;13.52;;;;;;;;;;5066966;28;20523;-69
2022/03/08 03:36:12;;;;;;;17.35;13.32;;;;;;;;;;5055059;28;20114;-71
2022/03/08 03:38:39;;;;;;;16.73;13.05;;;;;;;;;;5047352;28;20037;-72
2022/03/08 03:41:06;;;;;;;20.42;15.10;;;;;;;;;;5048872;28;20044;-71
2022/03/08 03:43:34;;;;;;;17.13;13.30;;;;;;;;;;5045820;28;20120;-71
2022/03/08 03:46:01;;;;;;;16.20;12.75;;;;;;;;;;5046738;28;20484;-71
2022/03/08 03:48:30;;;;;;;18.50;14.77;;;;;;;;;;5047398;28;20041;-70
2022/03/08 03:50:57;;;;;;;21.77;16.25;;;;;;;;;;5030051;28;20088;-71
2022/03/08 03:53:25;;;;;;;21.77;16.42;;;;;;;;;;5048288;28;20141;-71
2022/03/08 03:55:53;;;;;;;18.98;14.05;;;;;;;;;;5029770;28;20091;-71
2022/03/08 03:58:20;;;;;;;17.20;14.05;;;;;;;;;;5046156;28;20410;-71
2022/03/08 04:00:48;;;;;;;16.48;13.15;;;;;;;;;;5046168;28;20090;-71
2022/03/08 04:03:18;;;;;;;19.70;13.07;;;;;;;;;;5045632;28;20068;-71
2022/03/08 04:05:46;;;;;;;17.77;13.85;;;;;;;;;;5044531;28;20095;-71
2022/03/08 04:08:14;;;;;;;18.08;14.45;;;;;;;;;;5046973;28;20115;-71
2022/03/08 04:10:41;;;;;;;18.33;13.18;;;;;;;;;;5029066;28;20049;-71
2022/03/08 04:13:09;;;;;;;19.40;14.43;;;;;;;;;;5047306;28;20045;-71
2022/03/08 04:15:36;;;;;;;26.80;15.75;;;;;;;;;;5028997;28;20096;-71
2022/03/08 04:18:04;;;;;;;18.20;13.32;;;;;;;;;;5051023;28;20051;-71
2022/03/08 04:20:31;;;;;;;18.02;14.20;;;;;;;;;;5050544;28;20041;-71
2022/03/08 04:22:59;;;;;;;16.88;12.93;;;;;;;;;;5051365;28;20056;-71
2022/03/08 04:25:26;;;;;;;18.63;14.85;;;;;;;;;;5050663;28;20052;-71
2022/03/08 04:27:53;;;;;;;17.38;13.02;;;;;;;;;;5051975;28;20045;-70
2022/03/08 04:30:21;;;;;;;17.98;14.32;;;;;;;;;;5029860;28;20041;-71
2022/03/08 04:32:52;;;;;;;20.58;13.32;;;;;;;;;;5040004;28;20051;-71
2022/03/08 04:35:19;;;;;;;18.27;14.38;;;;;;;;;;5048809;28;20037;-71
2022/03/08 04:37:47;;;;;;;19.17;13.57;;;;;;;;;;5050066;28;20079;-71
2022/03/08 04:40:15;;;;;;;24.27;17.42;;;;;;;;;;5050870;28;20052;-71
2022/03/08 04:42:43;;;;;;;22.30;15.02;;;;;;;;;;5051348;28;20513;-71
2022/03/08 04:45:11;;;;;;;21.60;15.80;;;;;;;;;;5030888;28;20127;-71
2022/03/08 04:47:38;;;;;;;18.80;14.60;;;;;;;;;;5033119;28;20052;-71
2022/03/08 04:50:07;;;;;;;17.92;13.20;;;;;;;;;;5028423;28;20041;-71
2022/03/08 04:52:37;;;;;;;21.10;16.13;;;;;;;;;;5031850;28;20445;-71
2022/03/08 04:55:04;;;;;;;20.95;14.23;;;;;;;;;;5017637;28;20076;-71
2022/03/08 04:57:32;;;;;;;19.70;14.68;;;;;;;;;;5013701;28;20041;-71
2022/03/08 05:00:00;;;;;;;23.23;18.25;;;;;;;;;;5042635;28;20037;-71
2022/03/08 05:02:29;;;;;;;21.25;15.05;;;;;;;;;;5019238;28;20095;-71
2022/03/08 05:04:56;;;;;;;16.67;12.10;;;;;;;;;;5049293;28;20044;-71
2022/03/08 05:07:24;;;;;;;22.63;16.50;;;;;;;;;;5050710;28;20041;-71
2022/03/08 05:09:51;;;;;;;17.63;13.07;;;;;;;;;;5051210;28;20047;-71
2022/03/08 05:12:18;;;;;;;17.00;12.73;;;;;;;;;;5050501;28;20123;-70
2022/03/08 05:14:46;;;;;;;20.35;14.75;;;;;;;;;;5047952;28;20140;-70
2022/03/08 05:17:13;;;;;;;21.42;16.02;;;;;;;;;;5033400;28;20048;-71
2022/03/08 05:19:41;;;;;;;20.42;15.63;;;;;;;;;;5049915;28;20399;-70
2022/03/08 05:22:08;;;;;;;18.65;13.95;;;;;;;;;;5041034;28;21397;-71
2022/03/08 05:24:35;;;;;;;19.70;14.85;;;;;;;;;;5017598;28;20407;-71
2022/03/08 05:27:03;;;;;;;18.73;13.20;;;;;;;;;;5057885;28;20421;-71
2022/03/08 05:29:31;;;;;;;21.17;13.98;;;;;;;;;;5061067;28;20456;-71
2022/03/08 05:31:58;;;;;;;24.77;16.80;;;;;;;;;;5055196;28;20043;-71
2022/03/08 05:34:26;;;;;;;20.83;16.27;;;;;;;;;;5054164;28;20059;-70
2022/03/08 05:36:55;;;;;;;20.83;14.93;;;;;;;;;;5049853;28;20032;-70
2022/03/08 05:39:23;;;;;;;20.10;14.95;;;;;;;;;;5050562;28;20041;-70
2022/03/08 05:41:51;;;;;;;18.20;14.35;;;;;;;;;;5042625;28;20061;-70
2022/03/08 05:44:18;;;;;;;20.45;15.65;;;;;;;;;;5045091;28;20229;-71
2022/03/08 05:46:45;;;;;;;16.83;13.57;;;;;;;;;;5046214;28;20056;-70
2022/03/08 05:49:13;;;;;;;21.25;15.32;;;;;;;;;;5048630;28;20462;-70
2022/03/08 05:51:42;;;;;;;17.77;14.15;;;;;;;;;;5044932;28;20059;-70
2022/03/08 05:54:10;;;;;;;20.88;14.82;;;;;;;;;;5041608;28;20045;-70
2022/03/08 05:56:37;;;;;;;19.40;15.70;;;;;;;;;;5056122;28;20033;-70
2022/03/08 05:59:05;;;;;;;19.58;15.07;;;;;;;;;;5061188;28;20034;-70
2022/03/08 06:01:32;;;;;;;20.73;16.30;;;;;;;;;;5044378;28;20040;-70
2022/03/08 06:04:00;;;;;;;23.67;17.45;;;;;;;;;;5067818;28;20288;-71
2022/03/08 06:06:27;;;;;;;24.15;16.75;;;;;;;;;;5058577;28;20040;-71
2022/03/08 06:08:55;;;;;;;20.00;15.00;;;;;;;;;;5064373;28;20045;-70
2022/03/08 06:11:22;;;;;;;25.45;17.23;;;;;;;;;;5059797;28;20068;-70
2022/03/08 06:13:49;;;;;;;23.85;15.77;;;;;;;;;;5037216;28;20414;-70
2022/03/08 06:16:17;;;;;;;21.23;14.68;;;;;;;;;;5033463;28;20047;-70
2022/03/08 06:18:44;;;;;;;26.58;19.38;;;;;;;;;;5029601;28;20049;-71
2022/03/08 06:21:12;;;;;;;29.23;20.02;;;;;;;;;;5044237;28;20114;-70
2022/03/08 06:23:39;;;;;;;25.42;19.17;;;;;;;;;;5030066;28;20049;-71
2022/03/08 06:26:07;;;;;;;26.92;18.55;;;;;;;;;;5042719;28;20110;-70
2022/03/08 06:28:34;;;;;;;36.30;25.88;;;;;;;;;;5042514;28;20123;-70
2022/03/08 06:31:01;;;;;;;25.33;17.80;;;;;;;;;;5027224;28;20045;-70
2022/03/08 06:33:29;;;;;;;26.77;19.42;;;;;;;;;;5038783;28;20383;-71
2022/03/08 06:35:56;;;;;;;28.08;19.88;;;;;;;;;;5040186;28;20136;-71
2022/03/08 06:38:24;;;;;;;23.52;15.75;;;;;;;;;;5040327;28;20045;-70
2022/03/08 06:40:52;;;;;;;20.63;16.27;;;;;;;;;;5024499;28;20045;-70
2022/03/08 06:43:19;;;;;;;25.95;17.77;;;;;;;;;;5039232;28;20041;-70
2022/03/08 06:45:47;;;;;;;34.05;22.02;;;;;;;;;;5022835;28;20053;-70
2022/03/08 06:48:14;;;;;;;27.50;19.40;;;;;;;;;;5042059;28;20083;-71
2022/03/08 06:50:41;;;;;;;23.52;16.58;;;;;;;;;;5041060;28;20048;-72
2022/03/08 06:53:09;;;;;;;23.63;17.30;;;;;;;;;;5048481;28;20482;-70
2022/03/08 06:55:37;;;;;;;24.38;17.45;;;;;;;;;;5047294;28;20047;-70
2022/03/08 06:58:04;;;;;;;21.50;16.30;;;;;;;;;;5047925;28;20509;-70
2022/03/08 07:00:32;;;;;;;22.75;16.55;;;;;;;;;;5030525;28;20040;-70
2022/03/08 07:02:59;;;;;;;21.92;17.40;;;;;;;;;;5030673;28;20041;-71
2022/03/08 07:05:27;;;;;;;18.77;14.25;;;;;;;;;;5044314;28;20045;-70
2022/03/08 07:07:54;;;;;;;20.67;15.95;;;;;;;;;;5047708;28;20128;-71
2022/03/08 07:10:22;;;;;;;20.40;14.27;;;;;;;;;;5046017;28;20521;-71
2022/03/08 07:12:50;;;;;;;24.98;19.35;;;;;;;;;;5047626;28;20041;-70
2022/03/08 07:15:17;;;;;;;38.30;26.92;;;;;;;;;;5037510;28;20096;-71
2022/03/08 07:17:48;;;;;;;26.95;21.00;;;;;;;;;;5050295;28;20041;-68
2022/03/08 07:20:16;;;;;;;22.65;17.00;;;;;;;;;;5053489;28;20164;-69
2022/03/08 07:22:45;;;;;;;20.20;15.20;;;;;;;;;;5049717;28;20570;-70
2022/03/08 07:25:15;;;;;;;20.35;14.77;;;;;;;;;;5044564;28;20137;-69
2022/03/08 07:27:42;;;;;;;17.75;13.15;;;;;;;;;;5046934;28;20399;-69
2022/03/08 07:30:10;;;;;;;24.90;16.60;;;;;;;;;;5057384;28;20045;-69
2022/03/08 07:32:38;;;;;;;21.15;15.77;;;;;;;;;;5049914;28;20037;-69
2022/03/08 07:35:06;;;;;;;22.45;14.93;;;;;;;;;;5031084;28;20071;-69
2022/03/08 07:37:35;;;;;;;20.27;15.60;;;;;;;;;;5046588;28;20124;-69
2022/03/08 07:40:04;;;;;;;18.20;14.30;;;;;;;;;;5047890;28;20076;-69
2022/03/08 07:42:32;;;;;;;21.58;15.60;;;;;;;;;;5046198;28;20033;-69
2022/03/08 07:44:59;;;;;;;19.90;15.68;;;;;;;;;;5047307;28;20053;-69
2022/03/08 07:47:27;;;;;;;20.63;16.73;;;;;;;;;;5047373;28;20072;-69
2022/03/08 07:49:54;;;;;;;17.58;14.65;;;;;;;;;;5044145;28;20041;-69
2022/03/08 07:52:21;;;;;;;19.75;15.40;;;;;;;;;;5044906;28;20099;-69
2022/03/08 07:54:49;;;;;;;19.33;14.55;;;;;;;;;;5045709;28;20049;-69
2022/03/08 07:57:16;;;;;;;22.48;16.10;;;;;;;;;;5044346;28;20167;-69
2022/03/08 07:59:43;;;;;;;19.45;16.15;;;;;;;;;;5046843;28;20505;-69
2022/03/08 08:02:11;;;;;;;19.70;15.95;;;;;;;;;;5045856;28;20087;-69
2022/03/08 08:04:39;;;;;;;20.73;16.08;;;;;;;;;;5046900;28;20048;-69
2022/03/08 08:07:06;;;;;;;19.55;16.25;;;;;;;;;;5046900;28;20068;-69
2022/03/08 08:09:34;;;;;;;22.27;16.50;;;;;;;;;;5041499;28;20041;-69
2022/03/08 08:12:02;;;;;;;18.35;15.95;;;;;;;;;;5046911;28;20041;-70
2022/03/08 08:14:30;;;;;;;17.13;14.88;;;;;;;;;;5046990;28;20041;-69
2022/03/08 08:16:57;;;;;;;19.00;15.73;;;;;;;;;;5047834;28;20041;-69
2022/03/08 08:19:25;;;;;;;20.17;15.90;;;;;;;;;;5026950;28;20469;-72
2022/03/08 08:21:53;;;;;;;19.50;15.82;;;;;;;;;;5047406;28;20044;-70
2022/03/08 08:24:20;;;;;;;19.27;15.13;;;;;;;;;;5046250;28;20498;-70
2022/03/08 08:26:48;;;;;;;16.15;14.45;;;;;;;;;;5023990;28;20123;-70
2022/03/08 08:29:16;;;;;;;15.85;14.15;;;;;;;;;;5047020;28;20103;-69
2022/03/08 08:31:43;;;;;;;18.23;13.50;;;;;;;;;;5047434;28;20529;-72
2022/03/08 08:34:10;;;;;;;16.98;14.10;;;;;;;;;;5046462;28;20060;-70
2022/03/08 08:36:38;;;;;;;13.27;11.98;;;;;;;;;;5028924;28;20213;-68
2022/03/08 08:39:05;;;;;;;14.35;12.80;;;;;;;;;;5044612;28;20128;-70
2022/03/08 08:41:33;;;;;;;14.05;11.95;;;;;;;;;;5046767;28;20040;-70
2022/03/08 08:44:00;;;;;;;13.13;11.70;;;;;;;;;;5028497;28;20041;-69
2022/03/08 08:46:28;;;;;;;12.07;10.77;;;;;;;;;;5046531;28;20051;-70
2022/03/08 08:48:55;;;;;;;12.77;10.80;;;;;;;;;;5047145;28;20068;-71
2022/03/08 08:51:23;;;;;;;11.18;10.00;;;;;;;;;;5021040;28;20080;-69
2022/03/08 08:53:50;;;;;;;11.77;10.48;;;;;;;;;;5046641;28;20048;-69
2022/03/08 08:56:17;;;;;;;12.00;10.30;;;;;;;;;;5043781;28;20399;-69
2022/03/08 08:58:45;;;;;;;13.75;10.52;;;;;;;;;;5046385;28;20044;-70
2022/03/08 09:01:12;;;;;;;11.60;10.20;;;;;;;;;;5046897;28;20110;-69
2022/03/08 09:03:40;;;;;;;11.75;10.23;;;;;;;;;;5049211;28;20052;-70
2022/03/08 09:06:07;;;;;;;11.40;10.02;;;;;;;;;;5047464;28;20029;-70
2022/03/08 09:08:35;;;;;;;10.57;9.57;;;;;;;;;;5047626;28;20145;-70
2022/03/08 09:11:05;;;;;;;10.55;9.52;;;;;;;;;;5050121;28;20147;-69
2022/03/08 09:13:32;;;;;;;9.65;8.75;;;;;;;;;;5049102;28;20029;-70
2022/03/08 09:16:00;;;;;;;10.23;9.23;;;;;;;;;;5049043;28;20036;-70
2022/03/08 09:18:27;;;;;;;9.02;8.05;;;;;;;;;;5050562;28;20037;-70
2022/03/08 09:20:54;;;;;;;8.57;7.70;;;;;;;;;;5051418;28;20051;-70
2022/03/08 09:23:23;;;;;;;9.10;8.30;;;;;;;;;;5048696;28;20785;-70
2022/03/08 09:25:50;;;;;;;10.75;9.65;;;;;;;;;;5032667;28;20429;-69
2022/03/08 09:28:17;;;;;;;9.98;9.02;;;;;;;;;;5063315;28;20457;-69
2022/03/08 09:30:46;;;;;;;11.55;9.40;;;;;;;;;;5110343;23;20062;-77
2022/03/08 09:33:13;;;;;;;11.65;9.50;;;;;;;;;;5046831;28;20513;-77
2022/03/08 09:35:45;;;;;;;12.37;9.20;;;;;;;;;;5071849;28;20124;-77
2022/03/08 09:38:13;;;;;;;9.63;8.40;;;;;;;;;;5083895;28;20040;-77
2022/03/08 09:40:41;;;;;;;9.38;8.25;;;;;;;;;;5071363;28;20041;-77
2022/03/08 09:43:08;;;;;;;9.63;8.63;;;;;;;;;;5067153;28;20059;-77
2022/03/08 09:45:36;;;;;;;9.38;8.52;;;;;;;;;;5065008;28;20033;-77
2022/03/08 09:48:04;;;;;;;10.35;8.43;;;;;;;;;;5076517;28;20058;-78
2022/03/08 09:50:31;;;;;;;9.65;8.25;;;;;;;;;;5074618;28;20552;-77
2022/03/08 09:53:00;;;;;;;9.27;8.38;;;;;;;;;;5092309;28;20072;-77
2022/03/08 09:55:27;;;;;;;8.93;8.13;;;;;;;;;;5091894;28;20119;-77
2022/03/08 09:57:55;;;;;;;9.40;8.40;;;;;;;;;;5092112;28;20043;-77
2022/03/08 10:00:24;;;;;;;9.43;8.05;;;;;;;;;;5069740;28;20393;-77
2022/03/08 10:02:55;;;;;;;11.48;8.50;;;;;;;;;;5072768;28;20040;-77
2022/03/08 10:05:24;;;;;;;9.48;7.43;;;;;;;;;;5053735;28;20041;-78
2022/03/08 10:08:11;;;;;;;9.32;7.60;;;;;;;;;;5050513;28;20409;-77
2022/03/08 10:10:49;;;;;;;7.15;6.43;;;;;;;;;;5079600;28;20119;-76
2022/03/08 10:13:22;;;;;;;8.45;7.45;;;;;;;;;;5061341;28;20048;-77
2022/03/08 10:16:10;;;;;;;6.00;4.05;;;;;;;;;;5069964;28;20101;-77
2022/03/08 10:18:40;;;;;;;5.57;4.07;;;;;;;;;;5076830;28;20049;-78
2022/03/08 10:21:25;;;;;;;4.57;3.42;;;;;;;;;;5066173;28;20044;-75
2022/03/08 10:23:52;;;;;;;3.40;3.00;;;;;;;;;;5073122;28;20036;-76
2022/03/08 10:26:20;;;;;;;6.80;3.97;;;;;;;;;;5070003;28;20457;-76
2022/03/08 10:28:50;;;;;;;4.18;3.72;;;;;;;;;;5074297;28;20036;-79
2022/03/08 10:31:18;;;;;;;5.95;3.92;;;;;;;;;;5079589;28;20127;-76
2022/03/08 10:33:46;;;;;;;5.93;3.75;;;;;;;;;;5080866;28;20044;-79
2022/03/08 10:36:17;;;;;;;8.00;4.28;;;;;;;;;;5045351;28;20093;-77
2022/03/08 10:39:03;;;;;;;4.57;4.10;;;;;;;;;;5071122;28;20512;-77
2022/03/08 10:41:31;;;;;;;3.83;3.33;;;;;;;;;;5071126;28;20436;-77
2022/03/08 10:43:58;;;;;;;5.88;3.85;;;;;;;;;;5070922;28;20052;-76
2022/03/08 10:46:26;;;;;;;4.70;3.78;;;;;;;;;;5070983;28;20139;-77
2022/03/08 10:48:54;;;;;;;4.68;3.40;;;;;;;;;;5071008;28;20497;-78
2022/03/08 10:51:22;;;;;;;5.40;3.00;;;;;;;;;;5055563;28;20059;-78
2022/03/08 10:53:50;;;;;;;5.38;3.55;;;;;;;;;;5055598;28;20044;-78
2022/03/08 10:56:23;;;;;;;3.75;3.42;;;;;;;;;;5080643;28;20106;-78
2022/03/08 10:58:51;;;;;;;4.15;3.28;;;;;;;;;;5058007;28;20140;-77
2022/03/08 11:01:19;;;;;;;4.65;3.17;;;;;;;;;;5063328;28;20095;-77
2022/03/08 11:03:56;;;;;;;5.68;3.85;;;;;;;;;;5059606;28;20094;-78
2022/03/08 11:06:25;;;;;;;4.30;3.10;;;;;;;;;;5075731;28;20123;-77
2022/03/08 11:08:54;;;;;;;3.20;2.58;;;;;;;;;;5073153;28;20032;-78
2022/03/08 11:11:21;;;;;;;3.55;2.20;;;;;;;;;;5054483;28;20049;-78
2022/03/08 11:13:54;;;;;;;7.47;3.35;;;;;;;;;;5053648;28;20428;-78
2022/03/08 11:16:22;;;;;;;5.45;2.97;;;;;;;;;;5071843;28;20049;-79
2022/03/08 11:18:50;;;;;;;5.15;3.10;;;;;;;;;;5071601;28;20041;-77
2022/03/08 11:21:21;;;;;;;4.13;3.40;;;;;;;;;;5060408;28;20054;-77
2022/03/08 11:23:48;;;;;;;6.13;3.58;;;;;;;;;;5092759;28;20044;-78
2022/03/08 11:26:16;;;;;;;6.32;3.78;;;;;;;;;;5088468;28;20066;-77
2022/03/08 11:28:48;;;;;;;5.38;3.65;;;;;;;;;;5078442;28;20032;-78
2022/03/08 11:31:21;;;;;;;2.63;2.42;;;;;;;;;;5077614;28;20047;-78
2022/03/08 11:34:09;;;;;;;5.65;3.40;;;;;;;;;;5065482;28;20025;-78
2022/03/08 11:36:48;;;;;;;4.60;3.53;;;;;;;;;;5087819;28;20044;-78
2022/03/08 11:39:28;;;;;;;3.97;2.95;;;;;;;;;;5056375;28;20064;-78
2022/03/08 11:41:56;;;;;;;5.68;2.80;;;;;;;;;;5058029;28;20049;-77
2022/03/08 11:44:25;;;;;;;3.22;2.45;;;;;;;;;;5075788;28;20095;-78
2022/03/08 11:47:14;;;;;;;3.17;2.83;;;;;;;;;;5094026;28;20048;-78
2022/03/08 11:49:43;;;;;;;4.63;3.40;;;;;;;;;;5096505;28;20045;-76
2022/03/08 11:52:20;;;;;;;4.00;3.35;;;;;;;;;;5095587;28;20273;-76
2022/03/08 11:55:11;;;;;;;4.18;3.40;;;;;;;;;;5095371;28;20045;-77
2022/03/08 11:57:44;;;;;;;12.82;4.88;;;;;;;;;;5089413;28;20035;-77
2022/03/08 12:00:16;;;;;;;4.75;3.38;;;;;;;;;;5097120;28;20043;-77
2022/03/08 12:02:47;;;;;;;6.80;3.80;;;;;;;;;;5078335;28;20052;-76
2022/03/08 12:05:40;;;;;;;5.25;3.10;;;;;;;;;;5091009;28;20088;-78
2022/03/08 12:08:23;;;;;;;7.20;3.90;;;;;;;;;;5052783;28;20040;-76
2022/03/08 12:10:57;;;;;;;4.30;3.67;;;;;;;;;;5048627;28;20041;-76
2022/03/08 12:13:40;;;;;;;4.93;3.72;;;;;;;;;;5051167;28;20052;-78
2022/03/08 12:16:11;;;;;;;5.75;3.47;;;;;;;;;;5071164;28;20128;-77
2022/03/08 12:18:43;;;;;;;3.95;3.35;;;;;;;;;;5066481;28;20040;-77
2022/03/08 12:21:10;;;;;;;;;;;;;;;;;;5060795;28;20072;-78
2022/03/08 12:23:47;;;;;;;5.40;3.30;;;;;;;;;;5059097;28;19920;-77
2022/03/08 12:26:26;;;;;;;3.33;3.03;;;;;;;;;;5057818;28;20156;-78
2022/03/08 12:29:15;;;;;;;5.57;3.60;;;;;;;;;;5058632;28;20725;-78
2022/03/08 12:31:43;;;;;;;;;;;;;;;;;;5053754;28;20068;-77
2022/03/08 12:34:12;;;;;;;7.80;2.70;;;;;;;;;;5058216;28;19958;-77
2022/03/08 12:37:05;;;;;;;3.65;3.30;;;;;;;;;;5056244;28;20127;-76
2022/03/08 12:39:52;;;;;;;4.63;3.20;;;;;;;;;;5059883;28;20076;-77
2022/03/08 12:42:32;;;;;;;7.00;3.42;;;;;;;;;;5061089;28;20137;-77
2022/03/08 12:45:19;;;;;;;4.13;3.05;;;;;;;;;;5032541;28;20033;-77
2022/03/08 12:47:51;;;;;;;5.78;3.20;;;;;;;;;;5051234;28;20048;-77
2022/03/08 12:50:20;;;;;;;4.15;3.30;;;;;;;;;;5058562;28;20055;-77
2022/03/08 12:52:49;;;;;;;3.75;3.35;;;;;;;;;;5057708;28;20045;-77
2022/03/08 12:55:18;;;;;;;3.47;2.90;;;;;;;;;;5059391;28;20072;-77
2022/03/08 12:57:50;;;;;;;4.28;3.50;;;;;;;;;;5059239;28;20513;-77
2022/03/08 13:00:32;;;;;;;3.35;2.92;;;;;;;;;;5060881;28;20133;-78
2022/03/08 13:02:59;;;;;;;3.55;2.90;;;;;;;;;;5054266;28;20135;-77
2022/03/08 13:05:29;;;;;;;3.30;2.58;;;;;;;;;;5045847;28;20048;-78
2022/03/08 13:07:57;;;;;;;3.17;2.80;;;;;;;;;;5066151;28;20072;-78
2022/03/08 13:10:25;;;;;;;4.13;3.10;;;;;;;;;;5065918;28;20578;-77
2022/03/08 13:12:53;;;;;;;5.05;2.92;;;;;;;;;;5045665;28;20037;-78
2022/03/08 13:15:23;;;;;;;3.55;3.13;;;;;;;;;;5056444;28;20055;-78
2022/03/08 13:17:52;;;;;;;4.03;2.70;;;;;;;;;;5035173;28;20049;-78
2022/03/08 13:20:26;;;;;;;2.97;2.70;;;;;;;;;;5059229;28;20045;-77
2022/03/08 13:22:55;;;;;;;2.90;2.58;;;;;;;;;;5057495;28;20051;-77
2022/03/08 13:25:23;;;;;;;2.92;2.35;;;;;;;;;;5061925;28;20044;-77
2022/03/08 13:27:53;;;;;;;4.50;2.70;;;;;;;;;;5060521;28;20093;-77
2022/03/08 13:30:29;;;;;;;3.65;2.80;;;;;;;;;;5045266;28;20044;-77
2022/03/08 13:33:11;;;;;;;3.20;2.75;;;;;;;;;;5053063;28;20037;-78
2022/03/08 13:35:41;;;;;;;2.90;2.60;;;;;;;;;;5061841;28;20060;-77
2022/03/08 13:38:12;;;;;;;3.22;2.92;;;;;;;;;;5058174;28;20037;-77
2022/03/08 13:40:40;;;;;;;;;;;;;;;;;;5050777;28;20041;-77
2022/03/08 13:43:08;;;;;;;3.28;2.42;;;;;;;;;;5056629;28;19924;-77
2022/03/08 13:45:56;;;;;;;3.53;2.72;;;;;;;;;;5059729;28;20086;-78
2022/03/08 13:48:28;;;;;;;4.25;2.92;;;;;;;;;;5059331;28;20056;-78
2022/03/08 13:50:56;;;;;;;2.90;2.70;;;;;;;;;;5051382;28;20137;-77
2022/03/08 13:53:24;;;;;;;3.17;2.70;;;;;;;;;;5058051;28;20036;-77
2022/03/08 13:55:55;;;;;;;3.00;2.70;;;;;;;;;;5056258;28;20055;-77
2022/03/08 13:58:23;;;;;;;3.95;2.47;;;;;;;;;;5059296;28;20049;-77
2022/03/08 14:00:52;;;;;;;2.65;2.00;;;;;;;;;;5059094;28;20048;-77
2022/03/08 14:03:21;;;;;;;3.83;2.47;;;;;;;;;;5058269;28;20052;-78
2022/03/08 14:05:53;;;;;;;3.10;2.65;;;;;;;;;;5045398;28;20041;-78
2022/03/08 14:08:32;;;;;;;5.45;2.60;;;;;;;;;;5056683;28;20049;-77
2022/03/08 14:11:01;;;;;;;3.13;2.55;;;;;;;;;;5054295;28;20063;-79
2022/03/08 14:13:30;;;;;;;2.95;2.38;;;;;;;;;;5046249;28;20578;-78
2022/03/08 14:16:03;;;;;;;3.78;3.15;;;;;;;;;;5041263;28;20444;-77
2022/03/08 14:18:31;;;;;;;4.75;2.47;;;;;;;;;;5058419;28;20094;-78
2022/03/08 14:20:59;;;;;;;3.40;2.50;;;;;;;;;;5056434;28;20044;-78
2022/03/08 14:23:27;;;;;;;3.28;2.72;;;;;;;;;;5057608;28;20138;-77
2022/03/08 14:25:59;;;;;;;6.32;2.47;;;;;;;;;;5052327;28;20083;-79
2022/03/08 14:29:01;;;;;;;2.90;2.40;;;;;;;;;;5058049;28;20090;-77
2022/03/08 14:31:33;;;;;;;4.70;2.70;;;;;;;;;;5018656;28;20849;-77
2022/03/08 14:34:10;;;;;;;3.88;2.45;;;;;;;;;;5024038;28;20139;-79
2022/03/08 14:36:38;;;;;;;2.67;2.28;;;;;;;;;;5058095;28;20059;-77
2022/03/08 14:39:17;;;;;;;3.65;2.53;;;;;;;;;;5057710;28;20630;-78